createdAt,value
2023-05-15T00:00:10.921Z,1.00
2023-05-15T00:02:41.372Z,1.00
2023-05-15T00:05:10.229Z,1.00
2023-05-15T00:07:40.264Z,1.00
2023-05-15T00:10:10.333Z,13.20
2023-05-15T00:12:39.033Z,1.00
2023-05-15T00:15:08.964Z,1.00
2023-05-15T00:17:37.801Z,1.00
2023-05-15T00:20:10.498Z,3.60
2023-05-15T00:22:39.187Z,23.80
2023-05-15T00:25:08.899Z,14.50
2023-05-15T00:27:37.577Z,16.30
2023-05-15T00:30:08.043Z,22.40
2023-05-15T00:32:36.824Z,34.20
2023-05-15T00:35:08.030Z,51.00
2023-05-15T00:37:36.817Z,55.10
2023-05-15T00:40:07.032Z,57.00
2023-05-15T00:42:36.398Z,54.30
2023-05-15T00:45:07.504Z,75.00
2023-05-15T00:47:36.737Z,94.30
2023-05-15T00:50:06.538Z,95.30
2023-05-15T00:52:37.378Z,99.90
2023-05-15T00:55:06.784Z,92.70
2023-05-15T00:57:35.758Z,91.30
2023-05-15T01:00:07.351Z,82.90
2023-05-15T01:02:36.301Z,84.60
2023-05-15T01:05:05.402Z,73.70
2023-05-15T01:07:42.319Z,68.90
2023-05-15T01:10:12.194Z,56.10
2023-05-15T01:12:42.894Z,57.80
2023-05-15T01:15:12.355Z,48.90
2023-05-15T01:17:41.226Z,48.80
2023-05-15T01:20:12.297Z,62.30
2023-05-15T01:22:53.241Z,50.70
2023-05-15T01:25:47.524Z,54.00
2023-05-15T01:28:23.783Z,41.70
2023-05-15T01:30:55.259Z,42.10
2023-05-15T01:33:29.647Z,28.70
2023-05-15T01:36:02.790Z,31.90
2023-05-15T01:38:39.775Z,36.50
2023-05-15T01:41:13.860Z,39.40
2023-05-15T01:43:46.814Z,46.00
2023-05-15T01:46:18.735Z,49.30
2023-05-15T01:48:49.559Z,40.00
2023-05-15T01:51:19.259Z,37.80
2023-05-15T01:53:49.233Z,42.20
2023-05-15T01:56:21.434Z,36.10
2023-05-15T01:58:53.010Z,29.70
2023-05-15T02:01:22.328Z,25.60
2023-05-15T02:03:51.537Z,33.40
2023-05-15T02:06:20.539Z,27.00
2023-05-15T02:08:50.731Z,23.00
2023-05-15T02:11:19.435Z,34.00
2023-05-15T02:13:48.815Z,30.60
2023-05-15T02:16:19.071Z,29.60
2023-05-15T02:18:47.855Z,35.70
2023-05-15T02:21:16.811Z,35.60
2023-05-15T02:23:45.487Z,30.30
2023-05-15T02:26:25.130Z,39.30
2023-05-15T02:29:05.596Z,46.50
2023-05-15T02:31:42.935Z,48.40
2023-05-15T02:34:18.663Z,43.10
2023-05-15T02:36:50.458Z,54.20
2023-05-15T02:39:19.824Z,67.40
2023-05-15T02:41:49.577Z,77.30
2023-05-15T02:44:19.737Z,65.60
2023-05-15T02:46:51.964Z,76.30
2023-05-15T02:49:20.824Z,84.50
2023-05-15T02:51:49.783Z,77.60
2023-05-15T02:54:18.574Z,97.50
2023-05-15T02:56:47.204Z,99.90
2023-05-15T02:59:20.076Z,99.90
2023-05-15T03:01:50.313Z,99.90
2023-05-15T03:04:19.108Z,99.90
2023-05-15T03:06:47.828Z,99.90
2023-05-15T03:09:16.705Z,99.90
2023-05-15T03:11:45.395Z,99.90
2023-05-15T03:14:14.107Z,99.90
2023-05-15T03:16:42.916Z,99.90
2023-05-15T03:19:13.088Z,99.90
2023-05-15T03:21:41.816Z,99.90
2023-05-15T03:24:10.543Z,98.70
2023-05-15T03:26:40.694Z,95.50
2023-05-15T03:29:09.316Z,95.20
2023-05-15T03:31:38.025Z,99.90
2023-05-15T03:34:06.747Z,99.90
2023-05-15T03:36:36.836Z,96.90
2023-05-15T03:39:06.189Z,99.90
2023-05-15T03:41:34.953Z,99.90
2023-05-15T03:44:03.735Z,98.80
2023-05-15T03:46:32.494Z,87.30
2023-05-15T03:49:01.254Z,91.80
2023-05-15T03:51:30.095Z,91.40
2023-05-15T03:54:00.420Z,94.50
2023-05-15T03:56:29.101Z,95.70
2023-05-15T03:58:57.831Z,97.50
2023-05-15T04:01:26.558Z,94.50
2023-05-15T04:03:55.411Z,91.40
2023-05-15T04:06:24.107Z,85.40
2023-05-15T04:08:52.782Z,94.00
2023-05-15T04:11:24.007Z,98.00
2023-05-15T04:13:52.644Z,99.90
2023-05-15T04:16:21.699Z,99.90
2023-05-15T04:18:50.511Z,99.90
2023-05-15T04:21:19.694Z,99.90
2023-05-15T04:23:48.649Z,99.90
2023-05-15T04:26:17.391Z,99.90
2023-05-15T04:29:00.189Z,99.90
2023-05-15T04:31:32.408Z,99.90
2023-05-15T04:34:01.111Z,96.90
2023-05-15T04:36:30.041Z,83.90
2023-05-15T04:38:58.775Z,58.20
2023-05-15T04:41:27.569Z,63.60
2023-05-15T04:43:57.710Z,93.40
2023-05-15T04:46:26.681Z,99.90
2023-05-15T04:48:55.347Z,99.90
2023-05-15T04:51:23.912Z,99.90
2023-05-15T04:53:52.780Z,99.90
2023-05-15T04:56:21.919Z,98.00
2023-05-15T04:58:50.627Z,96.10
2023-05-15T05:01:20.770Z,99.90
2023-05-15T05:03:49.467Z,99.90
2023-05-15T05:06:18.141Z,99.90
2023-05-15T05:08:46.891Z,99.50
2023-05-15T05:11:15.536Z,98.00
2023-05-15T05:13:44.130Z,99.80
2023-05-15T05:16:12.745Z,94.70
2023-05-15T05:18:42.854Z,92.90
2023-05-15T05:21:11.587Z,84.30
2023-05-15T05:23:40.361Z,77.80
2023-05-15T05:26:09.870Z,59.00
2023-05-15T05:28:38.543Z,60.20
2023-05-15T05:31:08.870Z,74.30
2023-05-15T05:33:37.523Z,63.80
2023-05-15T05:36:08.238Z,39.70
2023-05-15T05:38:37.539Z,12.70
2023-05-15T05:41:06.245Z,10.30
2023-05-15T05:43:34.928Z,17.90
2023-05-15T05:46:03.930Z,28.90
2023-05-15T05:48:32.520Z,27.40
2023-05-15T05:51:01.158Z,29.90
2023-05-15T05:53:31.276Z,20.20
2023-05-15T05:55:59.848Z,20.20
2023-05-15T05:58:28.642Z,14.30
2023-05-15T06:00:57.616Z,1.00
2023-05-15T06:03:26.596Z,1.00
2023-05-15T06:05:55.451Z,1.00
2023-05-15T06:08:24.376Z,1.00
2023-05-15T06:10:54.656Z,1.00
2023-05-15T06:13:23.803Z,1.00
2023-05-15T06:15:53.305Z,1.00
2023-05-15T06:18:22.631Z,1.00
2023-05-15T06:20:51.551Z,1.00
2023-05-15T06:23:20.628Z,1.00
2023-05-15T06:25:50.749Z,1.00
2023-05-15T06:28:21.474Z,1.00
2023-05-15T06:30:50.264Z,1.00
2023-05-15T06:33:18.981Z,1.00
2023-05-15T06:35:48.131Z,1.00
2023-05-15T06:38:17.050Z,1.00
2023-05-15T06:40:45.936Z,1.00
2023-05-15T06:43:14.739Z,1.00
2023-05-15T06:45:45.308Z,1.00
2023-05-15T06:48:14.205Z,1.00
2023-05-15T06:50:42.961Z,1.00
2023-05-15T06:53:14.384Z,1.00
2023-05-15T06:55:43.422Z,1.00
2023-05-15T06:58:12.192Z,1.00
2023-05-15T07:00:41.313Z,99.90
2023-05-15T07:03:11.531Z,99.90
2023-05-15T07:05:40.331Z,99.90
2023-05-15T07:08:08.931Z,1.00
2023-05-15T07:10:37.845Z,92.80
2023-05-15T07:13:06.844Z,99.90
2023-05-15T07:15:35.956Z,99.90
2023-05-15T07:18:05.535Z,99.90
2023-05-15T07:20:36.120Z,99.90
2023-05-15T07:23:05.457Z,1.00
2023-05-15T07:25:34.196Z,37.30
2023-05-15T07:28:03.665Z,1.00
2023-05-15T07:30:32.730Z,99.90
2023-05-15T07:33:01.585Z,1.00
2023-05-15T07:35:30.776Z,1.00
2023-05-15T07:38:01.753Z,70.60
2023-05-15T07:40:30.602Z,99.90
2023-05-15T07:42:59.616Z,99.90
2023-05-15T07:45:29.017Z,81.80
2023-05-15T07:47:59.465Z,1.00
2023-05-15T07:50:28.691Z,1.00
2023-05-15T07:52:58.179Z,99.90
2023-05-15T07:55:28.750Z,1.00
2023-05-15T07:57:57.332Z,1.00
2023-05-15T08:00:26.215Z,99.90
2023-05-15T08:02:55.074Z,1.00
2023-05-15T08:05:27.503Z,1.00
2023-05-15T08:07:56.561Z,99.90
2023-05-15T08:10:25.871Z,56.00
2023-05-15T08:12:56.374Z,99.90
2023-05-15T08:15:25.578Z,1.00
2023-05-15T08:17:56.003Z,99.90
2023-05-15T08:20:25.131Z,99.90
2023-05-15T08:22:54.013Z,99.90
2023-05-15T08:25:22.762Z,1.00
2023-05-15T08:27:51.986Z,1.00
2023-05-15T08:30:22.347Z,99.90
2023-05-15T08:32:51.377Z,1.00
2023-05-15T08:35:20.337Z,56.00
2023-05-15T08:37:48.962Z,99.90
2023-05-15T08:40:19.798Z,1.00
2023-05-15T08:42:57.478Z,1.00
2023-05-15T08:45:28.190Z,99.90
2023-05-15T08:47:59.312Z,99.90
2023-05-15T08:50:28.579Z,1.00
2023-05-15T08:53:00.827Z,1.00
2023-05-15T08:55:30.204Z,99.90
2023-05-15T08:58:00.347Z,99.90
2023-05-15T09:00:31.680Z,1.00
2023-05-15T09:03:02.617Z,1.00
2023-05-15T09:05:33.277Z,1.00
2023-05-15T09:08:07.711Z,1.00
2023-05-15T09:10:37.991Z,1.00
2023-05-15T09:13:26.269Z,1.00
2023-05-15T09:15:56.574Z,99.90
2023-05-15T09:18:26.044Z,99.90
2023-05-15T09:20:56.300Z,99.90
2023-05-15T09:23:27.947Z,1.00
2023-05-15T09:25:58.875Z,1.00
2023-05-15T09:28:30.160Z,1.00
2023-05-15T09:31:02.350Z,1.00
2023-05-15T09:33:33.404Z,1.00
2023-05-15T09:36:02.283Z,1.00
2023-05-15T09:38:31.424Z,1.00
2023-05-15T09:41:04.787Z,1.00
2023-05-15T09:43:36.616Z,1.00
2023-05-15T09:46:08.881Z,99.90
2023-05-15T09:48:38.600Z,99.90
2023-05-15T09:51:15.735Z,1.00
2023-05-15T09:53:44.844Z,24.70
2023-05-15T09:56:14.008Z,1.00
2023-05-15T09:58:54.722Z,1.00
2023-05-15T10:01:25.525Z,1.00
2023-05-15T10:04:01.357Z,99.90
2023-05-15T10:06:37.814Z,99.90
2023-05-15T10:09:07.072Z,99.90
2023-05-15T10:11:37.711Z,99.90
2023-05-15T10:14:18.054Z,99.90
2023-05-15T10:19:58.768Z,46.40
2023-05-15T10:23:07.467Z,99.90
2023-05-15T10:25:42.936Z,99.90
2023-05-15T10:28:13.444Z,99.90
2023-05-15T10:30:43.879Z,1.00
2023-05-15T10:33:16.608Z,1.00
2023-05-15T10:35:46.218Z,99.90
2023-05-15T10:38:15.314Z,99.90
2023-05-15T10:40:45.065Z,99.90
2023-05-15T10:43:15.696Z,99.90
2023-05-15T10:45:45.748Z,1.00
2023-05-15T10:48:17.310Z,99.90
2023-05-15T10:50:46.164Z,99.90
2023-05-15T10:53:15.131Z,29.70
2023-05-15T10:55:47.208Z,43.40
2023-05-15T10:58:16.018Z,99.90
2023-05-15T11:00:46.049Z,10.60
2023-05-15T11:03:47.882Z,45.90
2023-05-15T11:06:17.719Z,99.90
2023-05-15T11:08:46.334Z,99.90
2023-05-15T11:11:57.464Z,99.90
2023-05-15T11:14:27.852Z,99.90
2023-05-15T11:17:01.017Z,99.90
2023-05-15T11:19:39.738Z,1.00
2023-05-15T11:22:19.690Z,99.90
2023-05-15T11:24:57.146Z,99.90
2023-05-15T11:27:27.647Z,99.90
2023-05-15T11:30:13.743Z,10.90
2023-05-15T11:32:53.053Z,1.00
2023-05-15T11:35:25.614Z,1.00
2023-05-15T11:37:56.347Z,1.00
2023-05-15T11:40:27.388Z,1.00
2023-05-15T11:43:04.698Z,1.00
2023-05-15T11:45:35.061Z,1.00
2023-05-15T11:48:05.609Z,1.00
2023-05-15T11:50:37.215Z,1.00
2023-05-15T11:53:07.543Z,1.00
2023-05-15T11:55:37.628Z,1.00
2023-05-15T11:58:07.127Z,1.00
2023-05-15T12:00:35.905Z,1.00
2023-05-15T12:03:05.142Z,1.00
2023-05-15T12:05:35.437Z,1.00
2023-05-15T12:08:04.289Z,1.00
2023-05-15T12:10:33.685Z,99.90
2023-05-15T12:13:02.511Z,1.00
2023-05-15T12:15:31.486Z,17.80
2023-05-15T12:18:04.792Z,1.00
2023-05-15T12:20:37.782Z,1.00
2023-05-15T12:23:07.982Z,1.00
2023-05-15T12:25:38.123Z,1.00
2023-05-15T12:28:07.560Z,1.00
2023-05-15T12:30:37.280Z,1.00
2023-05-15T12:33:07.493Z,1.00
2023-05-15T12:35:38.474Z,1.00
2023-05-15T12:38:07.435Z,1.00
2023-05-15T12:40:37.088Z,1.00
2023-05-15T12:43:08.809Z,1.00
2023-05-15T12:45:40.394Z,1.00
2023-05-15T12:48:09.179Z,1.00
2023-05-15T12:50:39.510Z,1.00
2023-05-15T12:53:08.324Z,1.00
2023-05-15T12:55:38.649Z,1.00
2023-05-15T12:58:08.540Z,1.00
2023-05-15T13:00:38.761Z,1.00
2023-05-15T13:03:10.049Z,1.00
2023-05-15T13:05:41.073Z,1.00
2023-05-15T13:08:09.732Z,1.00
2023-05-15T13:10:39.305Z,1.00
2023-05-15T13:13:07.993Z,1.00
2023-05-15T13:15:38.512Z,1.00
2023-05-15T13:18:09.235Z,1.00
2023-05-15T13:20:40.828Z,18.90
2023-05-15T13:23:10.642Z,34.50
2023-05-15T13:25:39.531Z,54.40
2023-05-15T13:28:09.066Z,99.90
2023-05-15T13:30:41.805Z,99.90
2023-05-15T13:33:12.040Z,99.90
2023-05-15T13:35:47.000Z,99.90
2023-05-15T13:38:15.744Z,99.90
2023-05-15T13:40:44.547Z,99.90
2023-05-15T13:43:13.398Z,99.90
2023-05-15T13:45:42.492Z,77.80
2023-05-15T13:48:11.341Z,57.70
2023-05-15T13:50:43.436Z,99.90
2023-05-15T13:53:12.761Z,1.00
2023-05-15T13:55:41.618Z,1.00
2023-05-15T13:58:11.948Z,47.00
2023-05-15T14:00:41.295Z,31.20
2023-05-15T14:03:11.317Z,1.00
2023-05-15T14:05:43.504Z,99.90
2023-05-15T14:08:12.355Z,20.00
2023-05-15T14:10:41.403Z,1.00
2023-05-15T14:13:10.283Z,1.00
2023-05-15T14:15:39.165Z,1.00
2023-05-15T14:18:08.094Z,1.00
2023-05-15T14:20:37.001Z,99.90
2023-05-15T14:23:07.105Z,99.90
2023-05-15T14:25:36.073Z,99.90
2023-05-15T14:28:04.957Z,1.00
2023-05-15T14:30:34.172Z,1.00
2023-05-15T14:33:03.379Z,1.00
2023-05-15T14:35:32.388Z,99.90
2023-05-15T14:38:01.939Z,1.00
2023-05-15T14:40:32.196Z,99.90
2023-05-15T14:43:01.286Z,99.90
2023-05-15T14:45:30.312Z,1.00
2023-05-15T14:47:59.108Z,99.90
2023-05-15T14:50:28.675Z,99.90
2023-05-15T14:52:57.419Z,50.10
2023-05-15T14:55:26.143Z,99.90
2023-05-15T14:57:56.318Z,1.00
2023-05-15T15:00:25.553Z,11.90
2023-05-15T15:02:54.878Z,57.70
2023-05-15T15:05:23.914Z,51.10
2023-05-15T15:08:04.377Z,33.40
2023-05-15T15:10:35.058Z,22.60
2023-05-15T15:13:06.197Z,1.00
2023-05-15T15:15:35.946Z,1.00
2023-05-15T15:18:05.010Z,1.00
2023-05-15T15:20:34.250Z,1.00
2023-05-15T15:23:04.702Z,1.00
2023-05-15T15:25:34.555Z,1.00
2023-05-15T15:28:05.413Z,1.00
2023-05-15T15:30:34.490Z,1.00
2023-05-15T15:33:03.280Z,99.90
2023-05-15T15:35:32.067Z,22.20
2023-05-15T15:38:00.918Z,99.90
2023-05-15T15:40:30.034Z,99.90
2023-05-15T15:42:58.958Z,1.00
2023-05-15T15:45:29.892Z,1.00
2023-05-15T15:47:58.866Z,99.90
2023-05-15T15:50:27.952Z,99.90
2023-05-15T15:52:57.080Z,99.90
2023-05-15T15:55:26.012Z,1.00
2023-05-15T15:57:54.891Z,99.90
2023-05-15T16:00:24.667Z,99.90
2023-05-15T16:02:56.094Z,1.00
2023-05-15T16:05:24.870Z,1.00
2023-05-15T16:07:53.803Z,1.00
2023-05-15T16:10:22.772Z,99.90
2023-05-15T16:12:51.563Z,99.90
2023-05-15T16:15:31.460Z,59.60
2023-05-15T16:18:00.394Z,1.00
2023-05-15T16:20:29.447Z,1.00
2023-05-15T16:22:58.319Z,99.90
2023-05-15T16:25:27.176Z,1.00
2023-05-15T16:27:55.851Z,99.90
2023-05-15T16:30:33.673Z,1.00
2023-05-15T16:33:11.088Z,1.00
2023-05-15T16:35:39.805Z,1.00
2023-05-15T16:38:08.478Z,99.90
2023-05-15T16:40:37.347Z,1.00
2023-05-15T16:43:06.241Z,1.00
2023-05-15T16:45:35.930Z,1.00
2023-05-15T16:48:04.951Z,1.00
2023-05-15T16:50:38.786Z,19.00
2023-05-15T16:53:10.435Z,1.00
2023-05-15T16:55:40.373Z,99.90
2023-05-15T16:58:16.644Z,99.90
2023-05-15T17:00:45.989Z,1.00
2023-05-15T17:03:15.539Z,99.90
2023-05-15T17:05:47.910Z,99.90
2023-05-15T17:08:16.840Z,1.00
2023-05-15T17:10:45.663Z,99.90
2023-05-15T17:13:14.984Z,99.90
2023-05-15T17:15:44.187Z,1.00
2023-05-15T17:18:13.184Z,1.00
2023-05-15T17:20:41.901Z,1.00
2023-05-15T17:23:12.123Z,1.00
2023-05-15T17:25:40.851Z,1.00
2023-05-15T17:28:09.727Z,99.90
2023-05-15T17:30:38.495Z,99.90
2023-05-15T17:33:07.302Z,99.90
2023-05-15T17:35:35.975Z,1.00
2023-05-15T17:38:04.811Z,1.00
2023-05-15T17:40:35.010Z,99.90
2023-05-15T17:43:04.140Z,99.90
2023-05-15T17:45:33.078Z,99.90
2023-05-15T17:48:04.035Z,1.00
2023-05-15T17:50:32.897Z,1.00
2023-05-15T17:53:01.613Z,1.00
2023-05-15T17:55:30.306Z,1.00
2023-05-15T17:58:00.634Z,1.00
2023-05-15T18:00:29.658Z,1.00
2023-05-15T18:02:58.507Z,1.00
2023-05-15T18:05:27.980Z,1.00
2023-05-15T18:07:59.787Z,1.00
2023-05-15T18:10:28.556Z,1.00
2023-05-15T18:12:57.482Z,23.30
2023-05-15T18:15:27.944Z,22.30
2023-05-15T18:17:57.568Z,16.30
2023-05-15T18:20:26.563Z,27.00
2023-05-15T18:22:55.385Z,33.90
2023-05-15T18:25:24.451Z,41.10
2023-05-15T18:27:53.645Z,1.00
2023-05-15T18:30:22.651Z,1.00
2023-05-15T18:32:53.164Z,17.50
2023-05-15T18:35:22.243Z,17.30
2023-05-15T18:37:51.181Z,39.00
2023-05-15T18:40:20.302Z,54.30
2023-05-15T18:42:49.192Z,70.20
2023-05-15T18:45:18.713Z,83.10
2023-05-15T18:47:48.672Z,91.30
2023-05-15T18:50:19.313Z,94.00
2023-05-15T18:52:48.282Z,99.90
2023-05-15T18:55:17.387Z,99.90
2023-05-15T18:57:46.845Z,99.90
2023-05-15T19:00:26.738Z,99.90
2023-05-15T19:03:05.932Z,99.90
2023-05-15T19:05:36.823Z,99.90
2023-05-15T19:08:05.827Z,99.90
2023-05-15T19:10:34.955Z,99.90
2023-05-15T19:13:03.790Z,99.90
2023-05-15T19:15:33.123Z,99.90
2023-05-15T19:18:02.210Z,99.90
2023-05-15T19:20:31.153Z,99.90
2023-05-15T19:23:01.586Z,99.90
2023-05-15T19:25:30.619Z,99.90
2023-05-15T19:27:59.423Z,99.90
2023-05-15T19:30:28.642Z,99.90
2023-05-15T19:32:58.026Z,99.90
2023-05-15T19:35:27.122Z,99.90
2023-05-15T19:37:55.854Z,99.90
2023-05-15T19:40:26.455Z,99.90
2023-05-15T19:42:55.519Z,99.90
2023-05-15T19:45:24.338Z,99.90
2023-05-15T19:47:53.412Z,99.90
2023-05-15T19:50:22.307Z,99.90
2023-05-15T19:52:51.173Z,94.00
2023-05-15T19:55:20.336Z,81.30
2023-05-15T19:57:51.169Z,83.80
2023-05-15T20:00:20.410Z,92.20
2023-05-15T20:02:50.683Z,95.00
2023-05-15T20:05:20.123Z,99.90
2023-05-15T20:07:49.071Z,99.90
2023-05-15T20:10:19.285Z,99.90
2023-05-15T20:12:48.450Z,99.90
2023-05-15T20:15:18.809Z,99.90
2023-05-15T20:17:48.180Z,99.90
2023-05-15T20:20:18.111Z,99.90
2023-05-15T20:22:47.477Z,99.10
2023-05-15T20:25:16.944Z,99.90
2023-05-15T20:27:45.765Z,99.90
2023-05-15T20:30:14.823Z,99.90
2023-05-15T20:32:45.162Z,99.90
2023-05-15T20:35:14.113Z,99.90
2023-05-15T20:37:43.233Z,99.90
2023-05-15T20:40:13.248Z,99.90
2023-05-15T20:42:42.065Z,99.90
2023-05-15T20:45:12.192Z,99.90
2023-05-15T20:47:41.003Z,99.90
2023-05-15T20:50:12.767Z,99.90
2023-05-15T20:52:41.589Z,99.90
2023-05-15T20:55:16.353Z,99.90
2023-05-15T20:57:45.523Z,99.90
2023-05-15T21:00:16.971Z,91.50
2023-05-15T21:02:46.761Z,91.50
2023-05-15T21:05:17.300Z,51.90
2023-05-15T21:07:46.070Z,84.50
2023-05-15T21:10:14.846Z,72.10
2023-05-15T21:12:43.614Z,58.20
2023-05-15T21:15:12.908Z,67.70
2023-05-15T21:17:41.772Z,57.20
2023-05-15T21:20:11.488Z,32.80
2023-05-15T21:22:42.016Z,10.20
2023-05-15T21:25:12.183Z,20.90
2023-05-15T21:27:42.287Z,23.90
2023-05-15T21:30:11.842Z,31.30
2023-05-15T21:32:40.727Z,28.40
2023-05-15T21:35:10.325Z,8.90
2023-05-15T21:37:40.418Z,6.10
2023-05-15T21:40:10.443Z,30.80
2023-05-15T21:42:39.428Z,19.60
2023-05-15T21:45:09.288Z,18.50
2023-05-15T21:47:38.023Z,5.00
2023-05-15T21:50:08.329Z,1.00
2023-05-15T21:52:37.138Z,1.00
2023-05-15T21:55:08.857Z,1.00
2023-05-15T21:57:37.608Z,1.00
2023-05-15T22:00:08.511Z,1.00
2023-05-15T22:02:37.173Z,1.00
2023-05-15T22:05:06.624Z,1.00
2023-05-15T22:07:35.430Z,1.00
2023-05-15T22:10:04.809Z,1.00
2023-05-15T22:12:35.014Z,1.00
2023-05-15T22:15:03.717Z,1.00
2023-05-15T22:17:32.467Z,1.00
2023-05-15T22:20:08.323Z,1.00
2023-05-15T22:22:37.486Z,1.00
2023-05-15T22:25:07.344Z,1.00
2023-05-15T22:27:37.821Z,1.00
2023-05-15T22:30:07.858Z,1.00
2023-05-15T22:32:36.646Z,1.00
2023-05-15T22:35:05.642Z,1.00
2023-05-15T22:37:34.258Z,1.00
2023-05-15T22:40:03.098Z,1.00
2023-05-15T22:42:31.820Z,1.00
2023-05-15T22:45:01.888Z,1.00
2023-05-15T22:47:30.859Z,1.00
2023-05-15T22:49:59.587Z,1.00
2023-05-15T22:52:30.561Z,1.00
2023-05-15T22:54:59.270Z,1.00
2023-05-15T22:57:28.465Z,1.00
2023-05-15T22:59:57.048Z,1.00
2023-05-15T23:02:27.290Z,1.00
2023-05-15T23:04:55.918Z,1.00
2023-05-15T23:07:24.559Z,1.00
2023-05-15T23:09:53.220Z,1.00
2023-05-15T23:12:21.930Z,1.00
2023-05-15T23:14:50.751Z,1.00
2023-05-15T23:17:19.509Z,2.00
2023-05-15T23:19:49.574Z,32.20
2023-05-15T23:22:18.252Z,69.40
2023-05-15T23:24:46.815Z,64.50
2023-05-15T23:27:15.516Z,72.90
2023-05-15T23:29:44.148Z,90.50
2023-05-15T23:32:13.459Z,99.90
2023-05-15T23:34:42.186Z,89.60
2023-05-15T23:37:12.417Z,62.20
2023-05-15T23:39:41.175Z,53.90
2023-05-15T23:42:10.247Z,45.80
2023-05-15T23:44:39.058Z,81.00
2023-05-15T23:47:08.139Z,99.90
2023-05-15T23:49:36.920Z,99.90
2023-05-15T23:52:05.749Z,99.90
2023-05-15T23:54:35.820Z,99.90
2023-05-15T23:57:04.441Z,99.90
2023-05-15T23:59:33.228Z,99.90
